KSMS

Sumter Airport

Sumter, South Carolina, USA
METAR KSMS 191655Z AUTO 22007KT 10SM SCT029 BKN036 29/23 A3000 RMK AO2
Observed Flight Rules
Aug-19 @ 16:55 UTC (17 minutes ago) Visual Flight Rules
Wind Visibility Clouds
220° at 7 knots 10 miles
  • Scattered at 2,900' AGL
  • Broken at 3,600' AGL
Temperatures Readings
Current 29°C / 84°F
Dewpoint 23°C / 73°F
Humidity 70%
Altimeter 30" Hg
Pressure 1016 hPa
Elevation 56
METAR KSMS 191655Z AUTO 22007KT 10SM SCT029 BKN036 29/23 A3000 RMK AO2
Observed Flight Rules
Aug-19 @ 16:55 UTC
(17 minutes ago)
VFR
Wind Visibility
220° at 7 knots 10 miles
Clouds
  • Scattered at 2,900' AGL
  • Broken at 3,600' AGL
Temperature Dewpoint
29°C / 84°F 23°C / 73°F
Humidity Altimeter Pressure
70% 30" Hg 1016 hPa